sensor_id;sensor_type;location;lat;lon;timestamp;P1;durP1;ratioP1;P2;durP2;ratioP2
59193;SDS011;44967;48.598;15.650;2023-02-10T15:12:48;24.88;;;8.80;;
59193;SDS011;44967;48.598;15.650;2023-02-10T15:17:56;22.10;;;7.68;;
59193;SDS011;44967;48.598;15.650;2023-02-10T15:20:38;18.13;;;8.02;;
59193;SDS011;44967;48.598;15.650;2023-02-10T15:23:12;15.95;;;8.13;;
59193;SDS011;44967;48.598;15.650;2023-02-10T15:25:41;11.45;;;7.30;;
59193;SDS011;44967;48.598;15.650;2023-02-10T15:38:43;13.95;;;6.22;;
59193;SDS011;44967;48.598;15.650;2023-02-10T15:43:56;10.35;;;6.35;;
59193;SDS011;44967;48.598;15.650;2023-02-10T15:46:23;15.10;;;7.07;;
59193;SDS011;44967;48.598;15.650;2023-02-10T15:48:50;13.40;;;6.43;;
59193;SDS011;44967;48.598;15.650;2023-02-10T15:51:23;11.02;;;6.30;;
59193;SDS011;44967;48.598;15.650;2023-02-10T15:53:51;10.18;;;5.78;;
59193;SDS011;44967;48.598;15.650;2023-02-10T15:56:20;10.52;;;6.15;;
59193;SDS011;44967;48.598;15.650;2023-02-10T15:58:47;10.45;;;5.28;;
59193;SDS011;44967;48.598;15.650;2023-02-10T16:01:12;55.63;;;12.77;;
59193;SDS011;44967;48.598;15.650;2023-02-10T16:03:38;20.05;;;7.05;;
59193;SDS011;44967;48.598;15.650;2023-02-10T16:06:04;20.88;;;6.70;;
59193;SDS011;44967;48.598;15.650;2023-02-10T16:08:29;12.27;;;5.72;;
59193;SDS011;44967;48.598;15.650;2023-02-10T16:10:56;13.43;;;6.32;;
59193;SDS011;44967;48.598;15.650;2023-02-10T16:13:22;16.30;;;6.03;;
59193;SDS011;44967;48.598;15.650;2023-02-10T16:15:49;14.48;;;6.25;;
59193;SDS011;44967;48.598;15.650;2023-02-10T16:18:19;11.77;;;6.30;;
59193;SDS011;44967;48.598;15.650;2023-02-10T16:20:48;16.17;;;7.07;;
59193;SDS011;44967;48.598;15.650;2023-02-10T16:23:15;30.50;;;10.75;;
59193;SDS011;44967;48.598;15.650;2023-02-10T16:25:44;22.95;;;7.60;;
59193;SDS011;44967;48.598;15.650;2023-02-10T16:28:14;16.23;;;7.03;;
59193;SDS011;44967;48.598;15.650;2023-02-10T16:30:43;10.80;;;5.55;;
59193;SDS011;44967;48.598;15.650;2023-02-10T16:33:10;21.85;;;7.20;;
59193;SDS011;44967;48.598;15.650;2023-02-10T16:35:36;11.68;;;6.75;;
59193;SDS011;44967;48.598;15.650;2023-02-10T16:38:02;11.57;;;7.25;;
59193;SDS011;44967;48.598;15.650;2023-02-10T16:40:29;11.55;;;6.05;;
59193;SDS011;44967;48.598;15.650;2023-02-10T16:42:57;21.83;;;7.03;;
59193;SDS011;44967;48.598;15.650;2023-02-10T16:45:25;17.25;;;6.93;;
59193;SDS011;44967;48.598;15.650;2023-02-10T16:47:53;16.85;;;6.72;;
59193;SDS011;44967;48.598;15.650;2023-02-10T16:52:56;13.23;;;6.57;;
59193;SDS011;44967;48.598;15.650;2023-02-10T16:55:22;23.73;;;7.82;;
59193;SDS011;44967;48.598;15.650;2023-02-10T16:57:48;19.38;;;8.48;;
59193;SDS011;44967;48.598;15.650;2023-02-10T17:00:15;22.33;;;8.95;;
59193;SDS011;44967;48.598;15.650;2023-02-10T17:02:41;18.02;;;7.63;;
59193;SDS011;44967;48.598;15.650;2023-02-10T17:05:07;17.42;;;7.80;;
59193;SDS011;44967;48.598;15.650;2023-02-10T17:07:37;17.65;;;8.75;;
59193;SDS011;44967;48.598;15.650;2023-02-10T17:10:04;13.95;;;7.35;;
59193;SDS011;44967;48.598;15.650;2023-02-10T17:12:32;12.93;;;7.90;;
59193;SDS011;44967;48.598;15.650;2023-02-10T17:14:58;16.60;;;7.28;;
59193;SDS011;44967;48.598;15.650;2023-02-10T17:17:24;14.80;;;7.85;;
59193;SDS011;44967;48.598;15.650;2023-02-10T17:19:49;13.82;;;7.93;;
59193;SDS011;44967;48.598;15.650;2023-02-10T17:22:15;15.98;;;8.77;;
59193;SDS011;44967;48.598;15.650;2023-02-10T17:24:41;20.75;;;9.38;;
59193;SDS011;44967;48.598;15.650;2023-02-10T17:27:08;18.20;;;9.35;;
59193;SDS011;44967;48.598;15.650;2023-02-10T17:29:36;20.63;;;10.85;;
59193;SDS011;44967;48.598;15.650;2023-02-10T17:32:03;14.65;;;8.10;;
59193;SDS011;44967;48.598;15.650;2023-02-10T17:34:29;16.35;;;7.82;;
59193;SDS011;44967;48.598;15.650;2023-02-10T17:37:01;16.08;;;7.38;;
59193;SDS011;44967;48.598;15.650;2023-02-10T17:39:35;22.17;;;9.00;;
59193;SDS011;44967;48.598;15.650;2023-02-10T17:42:03;17.70;;;8.15;;
59193;SDS011;44967;48.598;15.650;2023-02-10T17:44:29;13.30;;;7.60;;
59193;SDS011;44967;48.598;15.650;2023-02-10T17:46:55;15.65;;;7.93;;
59193;SDS011;44967;48.598;15.650;2023-02-10T17:49:22;26.70;;;9.63;;
59193;SDS011;44967;48.598;15.650;2023-02-10T17:51:50;20.38;;;9.00;;
59193;SDS011;44967;48.598;15.650;2023-02-10T17:54:17;40.00;;;10.80;;
59193;SDS011;44967;48.598;15.650;2023-02-10T17:56:44;19.20;;;9.02;;
59193;SDS011;44967;48.598;15.650;2023-02-10T17:59:11;28.42;;;10.73;;
59193;SDS011;44967;48.598;15.650;2023-02-10T18:01:37;22.15;;;9.65;;
59193;SDS011;44967;48.598;15.650;2023-02-10T18:04:04;15.73;;;7.72;;
59193;SDS011;44967;48.598;15.650;2023-02-10T18:06:30;17.50;;;8.68;;
59193;SDS011;44967;48.598;15.650;2023-02-10T18:08:57;18.45;;;9.27;;
59193;SDS011;44967;48.598;15.650;2023-02-10T18:11:23;18.20;;;7.85;;
59193;SDS011;44967;48.598;15.650;2023-02-10T18:13:54;15.05;;;8.63;;
59193;SDS011;44967;48.598;15.650;2023-02-10T18:16:20;17.67;;;8.98;;
59193;SDS011;44967;48.598;15.650;2023-02-10T18:18:48;16.13;;;8.55;;
59193;SDS011;44967;48.598;15.650;2023-02-10T18:21:14;16.92;;;9.13;;
59193;SDS011;44967;48.598;15.650;2023-02-10T18:23:44;15.93;;;7.78;;
59193;SDS011;44967;48.598;15.650;2023-02-10T18:26:11;14.32;;;8.55;;
59193;SDS011;44967;48.598;15.650;2023-02-10T18:28:38;17.52;;;9.05;;
59193;SDS011;44967;48.598;15.650;2023-02-10T18:31:04;22.13;;;9.60;;
59193;SDS011;44967;48.598;15.650;2023-02-10T18:33:31;27.00;;;11.68;;
59193;SDS011;44967;48.598;15.650;2023-02-10T18:35:58;21.00;;;12.02;;
59193;SDS011;44967;48.598;15.650;2023-02-10T18:38:24;22.85;;;10.77;;
59193;SDS011;44967;48.598;15.650;2023-02-10T18:40:50;20.52;;;10.50;;
59193;SDS011;44967;48.598;15.650;2023-02-10T18:43:19;24.98;;;10.88;;
59193;SDS011;44967;48.598;15.650;2023-02-10T18:45:47;20.80;;;10.20;;
59193;SDS011;44967;48.598;15.650;2023-02-10T18:48:14;20.38;;;11.07;;
59193;SDS011;44967;48.598;15.650;2023-02-10T18:50:42;21.95;;;10.60;;
59193;SDS011;44967;48.598;15.650;2023-02-10T18:53:10;20.02;;;11.07;;
59193;SDS011;44967;48.598;15.650;2023-02-10T18:55:36;21.75;;;11.00;;
59193;SDS011;44967;48.598;15.650;2023-02-10T18:58:07;22.25;;;10.80;;
59193;SDS011;44967;48.598;15.650;2023-02-10T19:00:34;20.40;;;10.32;;
59193;SDS011;44967;48.598;15.650;2023-02-10T19:03:06;21.88;;;11.98;;
59193;SDS011;44967;48.598;15.650;2023-02-10T19:05:38;26.58;;;13.77;;
59193;SDS011;44967;48.598;15.650;2023-02-10T19:08:05;27.85;;;15.32;;
59193;SDS011;44967;48.598;15.650;2023-02-10T19:10:31;29.83;;;15.80;;
59193;SDS011;44967;48.598;15.650;2023-02-10T19:12:59;28.98;;;14.48;;
59193;SDS011;44967;48.598;15.650;2023-02-10T19:15:24;27.90;;;15.70;;
59193;SDS011;44967;48.598;15.650;2023-02-10T19:17:50;42.20;;;16.85;;
59193;SDS011;44967;48.598;15.650;2023-02-10T19:20:16;29.25;;;16.02;;
59193;SDS011;44967;48.598;15.650;2023-02-10T19:22:42;32.92;;;16.73;;
59193;SDS011;44967;48.598;15.650;2023-02-10T19:25:08;28.42;;;14.23;;
59193;SDS011;44967;48.598;15.650;2023-02-10T19:27:34;26.60;;;13.38;;
59193;SDS011;44967;48.598;15.650;2023-02-10T19:30:02;35.42;;;16.27;;
59193;SDS011;44967;48.598;15.650;2023-02-10T19:32:28;30.20;;;15.35;;
59193;SDS011;44967;48.598;15.650;2023-02-10T19:34:54;31.35;;;16.17;;
59193;SDS011;44967;48.598;15.650;2023-02-10T19:37:22;35.65;;;17.92;;
59193;SDS011;44967;48.598;15.650;2023-02-10T19:39:48;35.75;;;16.67;;
59193;SDS011;44967;48.598;15.650;2023-02-10T19:42:14;35.08;;;15.27;;
59193;SDS011;44967;48.598;15.650;2023-02-10T19:44:40;31.77;;;16.13;;
59193;SDS011;44967;48.598;15.650;2023-02-10T19:47:06;35.35;;;16.10;;
59193;SDS011;44967;48.598;15.650;2023-02-10T19:49:32;34.05;;;17.58;;
59193;SDS011;44967;48.598;15.650;2023-02-10T19:51:58;35.45;;;16.60;;
59193;SDS011;44967;48.598;15.650;2023-02-10T19:54:24;30.25;;;15.13;;
59193;SDS011;44967;48.598;15.650;2023-02-10T19:56:51;26.90;;;15.25;;
59193;SDS011;44967;48.598;15.650;2023-02-10T19:59:17;28.45;;;13.95;;
59193;SDS011;44967;48.598;15.650;2023-02-10T20:01:43;27.13;;;14.35;;
59193;SDS011;44967;48.598;15.650;2023-02-10T20:04:09;28.25;;;13.88;;
59193;SDS011;44967;48.598;15.650;2023-02-10T20:06:41;28.08;;;14.80;;
59193;SDS011;44967;48.598;15.650;2023-02-10T20:09:09;24.02;;;14.02;;
59193;SDS011;44967;48.598;15.650;2023-02-10T20:11:36;29.15;;;13.73;;
59193;SDS011;44967;48.598;15.650;2023-02-10T20:14:03;27.13;;;13.00;;
59193;SDS011;44967;48.598;15.650;2023-02-10T20:16:41;26.67;;;13.63;;
59193;SDS011;44967;48.598;15.650;2023-02-10T20:19:10;28.13;;;15.17;;
59193;SDS011;44967;48.598;15.650;2023-02-10T20:21:39;22.52;;;12.15;;
59193;SDS011;44967;48.598;15.650;2023-02-10T20:24:06;27.27;;;14.10;;
59193;SDS011;44967;48.598;15.650;2023-02-10T20:26:33;27.10;;;12.70;;
59193;SDS011;44967;48.598;15.650;2023-02-10T20:28:59;21.55;;;12.43;;
59193;SDS011;44967;48.598;15.650;2023-02-10T20:31:26;23.15;;;12.63;;
59193;SDS011;44967;48.598;15.650;2023-02-10T20:33:52;29.33;;;12.60;;
59193;SDS011;44967;48.598;15.650;2023-02-10T20:36:19;24.63;;;11.98;;
59193;SDS011;44967;48.598;15.650;2023-02-10T20:38:46;26.02;;;12.95;;
59193;SDS011;44967;48.598;15.650;2023-02-10T20:41:14;26.25;;;12.48;;
59193;SDS011;44967;48.598;15.650;2023-02-10T20:43:42;24.13;;;12.77;;
59193;SDS011;44967;48.598;15.650;2023-02-10T20:46:09;24.92;;;11.95;;
59193;SDS011;44967;48.598;15.650;2023-02-10T20:48:38;23.30;;;11.80;;
59193;SDS011;44967;48.598;15.650;2023-02-10T20:51:05;23.42;;;12.40;;
59193;SDS011;44967;48.598;15.650;2023-02-10T20:53:32;27.33;;;12.05;;
59193;SDS011;44967;48.598;15.650;2023-02-10T20:55:58;25.88;;;11.23;;
59193;SDS011;44967;48.598;15.650;2023-02-10T20:58:24;23.13;;;12.15;;
59193;SDS011;44967;48.598;15.650;2023-02-10T21:01:01;22.98;;;11.77;;
59193;SDS011;44967;48.598;15.650;2023-02-10T21:03:31;20.83;;;11.32;;
59193;SDS011;44967;48.598;15.650;2023-02-10T21:06:04;24.60;;;12.27;;
59193;SDS011;44967;48.598;15.650;2023-02-10T21:08:45;22.02;;;11.60;;
59193;SDS011;44967;48.598;15.650;2023-02-10T21:11:13;27.23;;;10.80;;
59193;SDS011;44967;48.598;15.650;2023-02-10T21:13:41;27.13;;;11.75;;
59193;SDS011;44967;48.598;15.650;2023-02-10T21:16:08;31.90;;;12.27;;
59193;SDS011;44967;48.598;15.650;2023-02-10T21:18:35;23.50;;;11.45;;
59193;SDS011;44967;48.598;15.650;2023-02-10T21:21:02;26.73;;;12.13;;
59193;SDS011;44967;48.598;15.650;2023-02-10T21:23:29;21.73;;;11.13;;
59193;SDS011;44967;48.598;15.650;2023-02-10T21:25:56;22.90;;;11.70;;
59193;SDS011;44967;48.598;15.650;2023-02-10T21:28:22;23.38;;;11.63;;
59193;SDS011;44967;48.598;15.650;2023-02-10T21:30:48;18.83;;;10.88;;
59193;SDS011;44967;48.598;15.650;2023-02-10T21:33:15;19.55;;;10.27;;
59193;SDS011;44967;48.598;15.650;2023-02-10T21:35:46;20.95;;;10.88;;
59193;SDS011;44967;48.598;15.650;2023-02-10T21:38:16;24.67;;;12.05;;
59193;SDS011;44967;48.598;15.650;2023-02-10T21:40:42;26.33;;;12.52;;
59193;SDS011;44967;48.598;15.650;2023-02-10T21:43:08;26.52;;;11.70;;
59193;SDS011;44967;48.598;15.650;2023-02-10T21:45:34;20.90;;;10.52;;
59193;SDS011;44967;48.598;15.650;2023-02-10T21:48:00;22.08;;;11.13;;
59193;SDS011;44967;48.598;15.650;2023-02-10T21:50:27;17.92;;;10.02;;
59193;SDS011;44967;48.598;15.650;2023-02-10T21:52:53;19.95;;;10.77;;
59193;SDS011;44967;48.598;15.650;2023-02-10T21:55:19;19.60;;;10.45;;
59193;SDS011;44967;48.598;15.650;2023-02-10T21:57:45;24.10;;;11.10;;
59193;SDS011;44967;48.598;15.650;2023-02-10T22:00:10;26.85;;;12.15;;
59193;SDS011;44967;48.598;15.650;2023-02-10T22:02:38;22.75;;;11.63;;
59193;SDS011;44967;48.598;15.650;2023-02-10T22:05:05;25.45;;;11.52;;
59193;SDS011;44967;48.598;15.650;2023-02-10T22:07:31;24.27;;;10.75;;
59193;SDS011;44967;48.598;15.650;2023-02-10T22:09:59;24.50;;;12.13;;
59193;SDS011;44967;48.598;15.650;2023-02-10T22:12:24;18.10;;;9.23;;
59193;SDS011;44967;48.598;15.650;2023-02-10T22:14:50;23.88;;;10.85;;
59193;SDS011;44967;48.598;15.650;2023-02-10T22:17:17;24.23;;;10.38;;
59193;SDS011;44967;48.598;15.650;2023-02-10T22:19:42;26.88;;;12.05;;
59193;SDS011;44967;48.598;15.650;2023-02-10T22:22:08;22.02;;;10.90;;
59193;SDS011;44967;48.598;15.650;2023-02-10T22:24:34;24.35;;;11.88;;
59193;SDS011;44967;48.598;15.650;2023-02-10T22:27:00;25.27;;;12.90;;
59193;SDS011;44967;48.598;15.650;2023-02-10T22:29:25;23.67;;;11.77;;
59193;SDS011;44967;48.598;15.650;2023-02-10T22:31:52;28.83;;;11.95;;
59193;SDS011;44967;48.598;15.650;2023-02-10T22:34:18;20.25;;;11.55;;
59193;SDS011;44967;48.598;15.650;2023-02-10T22:36:44;24.00;;;11.10;;
59193;SDS011;44967;48.598;15.650;2023-02-10T22:39:10;22.40;;;11.50;;
59193;SDS011;44967;48.598;15.650;2023-02-10T22:41:36;19.35;;;10.75;;
59193;SDS011;44967;48.598;15.650;2023-02-10T22:44:04;20.83;;;11.70;;
59193;SDS011;44967;48.598;15.650;2023-02-10T22:46:30;22.65;;;10.95;;
59193;SDS011;44967;48.598;15.650;2023-02-10T22:48:56;21.50;;;11.40;;
59193;SDS011;44967;48.598;15.650;2023-02-10T22:51:26;23.05;;;11.13;;
59193;SDS011;44967;48.598;15.650;2023-02-10T22:53:56;21.50;;;11.07;;
59193;SDS011;44967;48.598;15.650;2023-02-10T22:56:24;25.33;;;11.70;;
59193;SDS011;44967;48.598;15.650;2023-02-10T22:58:51;21.77;;;11.35;;
59193;SDS011;44967;48.598;15.650;2023-02-10T23:01:50;17.08;;;11.27;;
59193;SDS011;44967;48.598;15.650;2023-02-10T23:04:10;20.17;;;11.27;;
59193;SDS011;44967;48.598;15.650;2023-02-10T23:06:38;20.45;;;11.52;;
59193;SDS011;44967;48.598;15.650;2023-02-10T23:09:03;25.40;;;11.82;;
59193;SDS011;44967;48.598;15.650;2023-02-10T23:11:31;27.38;;;14.13;;
59193;SDS011;44967;48.598;15.650;2023-02-10T23:13:58;30.55;;;13.68;;
59193;SDS011;44967;48.598;15.650;2023-02-10T23:16:25;25.60;;;13.07;;
59193;SDS011;44967;48.598;15.650;2023-02-10T23:18:51;21.10;;;12.32;;
59193;SDS011;44967;48.598;15.650;2023-02-10T23:21:18;25.63;;;13.32;;
59193;SDS011;44967;48.598;15.650;2023-02-10T23:23:45;23.63;;;12.13;;
59193;SDS011;44967;48.598;15.650;2023-02-10T23:26:11;21.27;;;11.75;;
59193;SDS011;44967;48.598;15.650;2023-02-10T23:28:37;24.63;;;12.05;;
59193;SDS011;44967;48.598;15.650;2023-02-10T23:31:10;23.88;;;11.32;;
59193;SDS011;44967;48.598;15.650;2023-02-10T23:33:40;20.60;;;10.88;;
59193;SDS011;44967;48.598;15.650;2023-02-10T23:36:06;20.77;;;11.85;;
59193;SDS011;44967;48.598;15.650;2023-02-10T23:38:32;21.05;;;12.13;;
59193;SDS011;44967;48.598;15.650;2023-02-10T23:40:58;23.45;;;11.75;;
59193;SDS011;44967;48.598;15.650;2023-02-10T23:43:23;21.13;;;11.50;;
59193;SDS011;44967;48.598;15.650;2023-02-10T23:45:49;22.13;;;12.02;;
59193;SDS011;44967;48.598;15.650;2023-02-10T23:48:14;28.33;;;12.55;;
59193;SDS011;44967;48.598;15.650;2023-02-10T23:50:40;19.77;;;10.43;;
59193;SDS011;44967;48.598;15.650;2023-02-10T23:53:06;23.88;;;11.57;;
59193;SDS011;44967;48.598;15.650;2023-02-10T23:55:40;22.55;;;12.05;;
59193;SDS011;44967;48.598;15.650;2023-02-10T23:58:06;26.88;;;11.77;;
